createdAt,value
2023-04-16T00:01:15.817Z,16.35
2023-04-16T00:03:42.481Z,17.77
2023-04-16T00:06:10.891Z,18.08
2023-04-16T00:08:37.376Z,17.17
2023-04-16T00:11:03.854Z,16.92
2023-04-16T00:13:30.433Z,17.35
2023-04-16T00:15:57.061Z,17.30
2023-04-16T00:18:23.597Z,17.52
2023-04-16T00:20:50.744Z,18.60
2023-04-16T00:23:17.388Z,19.48
2023-04-16T00:25:43.826Z,18.48
2023-04-16T00:28:11.151Z,17.65
2023-04-16T00:30:37.849Z,16.23
2023-04-16T00:33:04.778Z,18.35
2023-04-16T00:35:31.279Z,16.33
2023-04-16T00:37:57.710Z,16.70
2023-04-16T00:40:27.667Z,17.30
2023-04-16T00:42:54.063Z,16.88
2023-04-16T00:45:20.593Z,17.73
2023-04-16T00:47:47.106Z,15.57
2023-04-16T00:50:14.213Z,15.27
2023-04-16T00:52:40.831Z,16.88
2023-04-16T00:55:07.985Z,16.88
2023-04-16T00:57:34.439Z,16.48
2023-04-16T01:00:00.886Z,16.83
2023-04-16T01:02:27.512Z,15.52
2023-04-16T01:04:55.136Z,15.63
2023-04-16T01:07:21.990Z,15.27
2023-04-16T01:09:48.483Z,15.93
2023-04-16T01:12:15.003Z,14.50
2023-04-16T01:14:41.452Z,14.68
2023-04-16T01:17:07.906Z,16.90
2023-04-16T01:19:37.111Z,15.15
2023-04-16T01:22:04.736Z,15.70
2023-04-16T01:24:31.915Z,17.17
2023-04-16T01:26:59.293Z,16.05
2023-04-16T01:29:26.386Z,16.08
2023-04-16T01:31:52.911Z,15.63
2023-04-16T01:34:19.405Z,15.63
2023-04-16T01:36:45.815Z,15.68
2023-04-16T01:39:15.523Z,14.00
2023-04-16T01:41:43.685Z,15.63
2023-04-16T01:44:10.304Z,16.45
2023-04-16T01:46:37.904Z,16.08
2023-04-16T01:49:05.551Z,15.85
2023-04-16T01:51:32.300Z,16.35
2023-04-16T01:53:58.854Z,15.18
2023-04-16T01:56:25.781Z,15.50
2023-04-16T01:58:52.900Z,16.15
2023-04-16T02:01:19.454Z,16.10
2023-04-16T02:03:46.280Z,16.42
2023-04-16T02:06:12.898Z,15.27
2023-04-16T02:08:39.378Z,14.90
2023-04-16T02:11:05.814Z,15.50
2023-04-16T02:13:32.289Z,15.23
2023-04-16T02:15:58.833Z,14.32
2023-04-16T02:18:25.380Z,14.63
2023-04-16T02:20:51.816Z,15.50
2023-04-16T02:23:18.259Z,15.23
2023-04-16T02:25:46.280Z,16.00
2023-04-16T02:28:15.010Z,15.50
2023-04-16T02:30:41.824Z,15.80
2023-04-16T02:33:09.583Z,15.30
2023-04-16T02:35:36.567Z,14.73
2023-04-16T02:38:04.242Z,14.48
2023-04-16T02:40:31.322Z,13.98
2023-04-16T02:42:57.801Z,16.45
2023-04-16T02:45:24.816Z,16.58
2023-04-16T02:47:51.729Z,16.10
2023-04-16T02:50:18.520Z,16.60
2023-04-16T02:52:45.009Z,16.35
2023-04-16T02:55:11.716Z,17.30
2023-04-16T02:57:38.197Z,16.55
2023-04-16T03:00:05.109Z,15.25
2023-04-16T03:02:31.838Z,15.52
2023-04-16T03:04:58.513Z,16.50
2023-04-16T03:07:25.132Z,16.88
2023-04-16T03:09:51.794Z,16.88
2023-04-16T03:12:18.319Z,16.80
2023-04-16T03:14:44.752Z,17.02
2023-04-16T03:17:11.493Z,17.10
2023-04-16T03:19:38.045Z,16.23
2023-04-16T03:22:04.539Z,15.88
2023-04-16T03:24:31.053Z,16.60
2023-04-16T03:26:58.266Z,15.55
2023-04-16T03:29:26.673Z,16.17
2023-04-16T03:31:53.147Z,17.85
2023-04-16T03:34:19.643Z,16.15
2023-04-16T03:36:46.356Z,15.60
2023-04-16T03:39:12.793Z,16.25
2023-04-16T03:41:39.270Z,16.40
2023-04-16T03:44:05.763Z,15.48
2023-04-16T03:46:32.340Z,16.60
2023-04-16T03:48:58.811Z,15.00
2023-04-16T03:51:26.450Z,16.08
2023-04-16T03:53:53.032Z,15.85
2023-04-16T03:56:19.545Z,14.63
2023-04-16T03:58:46.063Z,15.10
2023-04-16T04:01:12.515Z,14.40
2023-04-16T04:03:39.219Z,13.57
2023-04-16T04:06:09.460Z,15.32
2023-04-16T04:08:35.905Z,15.88
2023-04-16T04:11:02.308Z,14.18
2023-04-16T04:13:28.783Z,14.93
2023-04-16T04:15:55.278Z,15.57
2023-04-16T04:18:21.794Z,14.77
2023-04-16T04:20:48.245Z,16.55
2023-04-16T04:23:14.716Z,15.95
2023-04-16T04:25:41.140Z,15.85
2023-04-16T04:28:07.616Z,16.95
2023-04-16T04:30:35.731Z,16.67
2023-04-16T04:33:02.299Z,15.88
2023-04-16T04:35:28.803Z,16.20
2023-04-16T04:37:55.263Z,15.68
2023-04-16T04:40:21.756Z,15.95
2023-04-16T04:42:48.239Z,15.52
2023-04-16T04:45:14.773Z,16.98
2023-04-16T04:47:41.340Z,15.95
2023-04-16T04:50:08.271Z,17.30
2023-04-16T04:52:34.725Z,15.60
2023-04-16T04:55:01.300Z,17.50
2023-04-16T04:57:27.774Z,18.48
2023-04-16T04:59:54.171Z,17.05
2023-04-16T05:02:20.812Z,17.00
2023-04-16T05:04:47.370Z,16.55
2023-04-16T05:07:13.852Z,17.15
2023-04-16T05:09:40.499Z,17.17
2023-04-16T05:12:07.092Z,15.95
2023-04-16T05:14:33.616Z,14.68
2023-04-16T05:17:00.229Z,16.23
2023-04-16T05:19:26.733Z,15.55
2023-04-16T05:21:53.165Z,16.10
2023-04-16T05:24:19.972Z,16.17
2023-04-16T05:26:46.425Z,14.27
2023-04-16T05:29:12.866Z,13.77
2023-04-16T05:31:39.360Z,14.30
2023-04-16T05:34:05.816Z,14.70
2023-04-16T05:36:32.338Z,14.18
2023-04-16T05:38:58.739Z,15.88
2023-04-16T05:41:25.537Z,15.13
2023-04-16T05:43:52.002Z,15.23
2023-04-16T05:46:18.435Z,13.93
2023-04-16T05:48:44.867Z,14.88
2023-04-16T05:51:11.496Z,14.55
2023-04-16T05:53:37.917Z,14.85
2023-04-16T05:56:04.552Z,14.45
2023-04-16T05:58:30.986Z,13.68
2023-04-16T06:00:57.440Z,13.73
2023-04-16T06:03:24.002Z,13.48
2023-04-16T06:05:50.849Z,13.40
2023-04-16T06:08:17.311Z,12.48
2023-04-16T06:10:46.117Z,12.68
2023-04-16T06:13:12.583Z,13.23
2023-04-16T06:15:39.066Z,13.50
2023-04-16T06:18:05.759Z,13.40
2023-04-16T06:20:32.284Z,13.25
2023-04-16T06:22:58.799Z,12.95
2023-04-16T06:25:25.232Z,13.65
2023-04-16T06:27:51.644Z,14.15
2023-04-16T06:30:19.831Z,12.82
2023-04-16T06:32:46.641Z,13.07
2023-04-16T06:35:13.292Z,12.80
2023-04-16T06:37:39.704Z,11.50
2023-04-16T06:40:06.693Z,13.65
2023-04-16T06:42:33.280Z,12.73
2023-04-16T06:44:59.754Z,13.70
2023-04-16T06:47:27.091Z,13.40
2023-04-16T06:49:53.659Z,12.48
2023-04-16T06:52:20.165Z,14.13
2023-04-16T06:54:46.583Z,13.27
2023-04-16T06:57:13.041Z,13.70
2023-04-16T06:59:39.623Z,14.05
2023-04-16T07:02:07.398Z,12.88
2023-04-16T07:04:33.864Z,11.73
2023-04-16T07:07:00.263Z,11.75
2023-04-16T07:09:27.224Z,12.55
2023-04-16T07:11:54.259Z,13.13
2023-04-16T07:14:20.960Z,11.77
2023-04-16T07:16:47.426Z,13.50
2023-04-16T07:19:13.973Z,13.88
2023-04-16T07:21:42.019Z,12.13
2023-04-16T07:24:08.554Z,12.27
2023-04-16T07:29:00.253Z,12.15
2023-04-16T07:31:27.078Z,13.05
2023-04-16T07:33:53.716Z,10.63
2023-04-16T07:36:20.847Z,11.23
2023-04-16T07:38:47.363Z,10.68
2023-04-16T07:41:15.296Z,10.93
2023-04-16T07:43:41.884Z,11.40
2023-04-16T07:46:08.426Z,11.20
2023-04-16T07:48:34.904Z,10.73
2023-04-16T07:51:01.512Z,10.68
2023-04-16T07:53:28.084Z,11.13
2023-04-16T07:55:54.698Z,10.85
2023-04-16T07:58:21.228Z,11.13
2023-04-16T08:00:49.308Z,10.45
2023-04-16T08:03:18.309Z,10.60
2023-04-16T08:05:45.336Z,10.77
2023-04-16T08:08:11.873Z,10.15
2023-04-16T08:10:39.368Z,10.65
2023-04-16T08:13:05.939Z,10.50
2023-04-16T08:15:32.531Z,9.82
2023-04-16T08:17:59.727Z,10.45
2023-04-16T08:20:26.323Z,10.98
2023-04-16T08:22:54.209Z,10.55
2023-04-16T08:25:20.838Z,10.40
2023-04-16T08:27:47.447Z,9.73
2023-04-16T08:30:15.176Z,9.70
2023-04-16T08:32:41.724Z,9.82
2023-04-16T08:35:08.846Z,10.43
2023-04-16T08:37:35.481Z,9.38
2023-04-16T08:40:02.604Z,9.05
2023-04-16T08:42:34.165Z,8.77
2023-04-16T08:45:07.056Z,9.55
2023-04-16T08:47:35.608Z,9.82
2023-04-16T08:50:05.213Z,9.88
2023-04-16T08:52:32.514Z,9.75
2023-04-16T08:55:08.970Z,7.60
2023-04-16T08:57:40.315Z,8.60
2023-04-16T09:00:09.905Z,8.60
2023-04-16T09:02:37.171Z,8.30
2023-04-16T09:05:06.565Z,9.50
2023-04-16T09:07:34.338Z,9.13
2023-04-16T09:10:01.590Z,9.50
2023-04-16T09:12:28.165Z,8.50
2023-04-16T09:14:55.957Z,8.10
2023-04-16T09:17:22.790Z,8.80
2023-04-16T09:19:49.320Z,9.10
2023-04-16T09:22:17.187Z,8.65
2023-04-16T09:24:43.721Z,8.18
2023-04-16T09:27:11.167Z,9.18
2023-04-16T09:29:39.640Z,8.65
2023-04-16T09:32:11.076Z,7.07
2023-04-16T09:35:00.585Z,7.03
2023-04-16T09:37:30.921Z,8.95
2023-04-16T09:39:59.653Z,9.52
2023-04-16T09:42:36.196Z,6.95
2023-04-16T09:45:05.111Z,8.35
2023-04-16T09:47:43.955Z,9.07
2023-04-16T09:50:17.740Z,8.93
2023-04-16T09:52:51.128Z,9.15
2023-04-16T09:55:23.412Z,8.80
2023-04-16T09:57:58.587Z,9.30
2023-04-16T10:00:25.074Z,7.43
2023-04-16T10:03:03.629Z,9.68
2023-04-16T10:05:30.243Z,10.35
2023-04-16T10:08:00.575Z,10.88
2023-04-16T10:10:27.113Z,10.40
2023-04-16T10:12:55.288Z,11.10
2023-04-16T10:15:22.225Z,10.32
2023-04-16T10:17:48.992Z,10.68
2023-04-16T10:20:17.227Z,11.80
2023-04-16T10:22:43.969Z,11.02
2023-04-16T10:25:10.546Z,11.07
2023-04-16T10:27:37.203Z,10.70
2023-04-16T10:30:04.562Z,10.15
2023-04-16T10:32:31.440Z,11.68
2023-04-16T10:34:58.180Z,10.98
2023-04-16T10:37:32.083Z,10.43
2023-04-16T10:39:59.992Z,12.25
2023-04-16T10:42:27.515Z,10.88
2023-04-16T10:44:54.004Z,11.10
2023-04-16T10:47:24.746Z,11.27
2023-04-16T10:49:51.958Z,10.68
2023-04-16T10:52:18.500Z,11.57
2023-04-16T10:54:46.596Z,9.45
2023-04-16T10:57:17.854Z,10.43
2023-04-16T10:59:45.326Z,10.77
2023-04-16T11:02:19.203Z,10.52
2023-04-16T11:04:48.230Z,11.15
2023-04-16T11:07:20.903Z,9.32
2023-04-16T11:10:02.348Z,9.25
2023-04-16T11:12:39.577Z,9.15
2023-04-16T11:15:08.167Z,8.95
2023-04-16T11:17:39.478Z,9.38
2023-04-16T11:20:17.469Z,8.95
2023-04-16T11:22:51.140Z,9.82
2023-04-16T11:27:53.909Z,8.65
2023-04-16T11:30:33.863Z,7.82
2023-04-16T11:33:09.319Z,8.27
2023-04-16T11:35:36.040Z,7.95
2023-04-16T11:38:02.523Z,9.07
2023-04-16T11:40:31.885Z,9.25
2023-04-16T11:43:27.895Z,8.80
2023-04-16T11:45:58.299Z,7.00
2023-04-16T11:48:24.760Z,7.88
2023-04-16T11:50:58.211Z,7.85
2023-04-16T11:53:24.819Z,9.07
2023-04-16T11:55:51.367Z,6.97
2023-04-16T11:58:19.131Z,6.35
2023-04-16T12:00:46.565Z,7.50
2023-04-16T12:03:13.345Z,7.20
2023-04-16T12:05:40.739Z,7.63
2023-04-16T12:08:11.186Z,7.28
2023-04-16T12:10:53.270Z,7.75
2023-04-16T12:13:20.036Z,7.28
2023-04-16T12:15:53.493Z,7.80
2023-04-16T12:18:22.830Z,7.35
2023-04-16T12:20:51.280Z,7.85
2023-04-16T12:23:32.633Z,7.10
2023-04-16T12:26:03.147Z,7.18
2023-04-16T12:31:00.609Z,5.57
2023-04-16T12:33:27.183Z,6.35
2023-04-16T12:35:54.020Z,6.45
2023-04-16T12:38:22.764Z,6.38
2023-04-16T12:40:50.738Z,5.55
2023-04-16T12:43:17.897Z,5.53
2023-04-16T12:45:44.589Z,7.60
2023-04-16T12:48:11.508Z,7.38
2023-04-16T12:50:39.564Z,5.28
2023-04-16T12:53:06.270Z,5.30
2023-04-16T12:55:32.814Z,6.68
2023-04-16T12:57:59.441Z,6.93
2023-04-16T13:00:26.270Z,5.95
2023-04-16T13:02:52.950Z,6.47
2023-04-16T13:05:19.601Z,6.32
2023-04-16T13:07:46.262Z,6.68
2023-04-16T13:10:13.369Z,6.68
2023-04-16T13:12:39.948Z,6.18
2023-04-16T13:15:06.971Z,6.43
2023-04-16T13:17:33.494Z,6.25
2023-04-16T13:19:59.972Z,6.32
2023-04-16T13:22:26.472Z,6.20
2023-04-16T13:24:52.938Z,6.25
2023-04-16T13:27:20.287Z,6.75
2023-04-16T13:29:47.129Z,6.20
2023-04-16T13:32:14.668Z,6.32
2023-04-16T13:34:41.104Z,5.18
2023-04-16T13:37:07.577Z,6.65
2023-04-16T13:39:34.123Z,6.25
2023-04-16T13:42:00.661Z,6.60
2023-04-16T13:44:27.110Z,6.68
2023-04-16T13:46:53.613Z,6.25
2023-04-16T13:49:20.242Z,5.85
2023-04-16T13:51:46.688Z,6.50
2023-04-16T13:54:13.095Z,6.22
2023-04-16T13:56:39.923Z,5.68
2023-04-16T13:59:06.813Z,4.68
2023-04-16T14:01:33.444Z,5.95
2023-04-16T14:04:06.190Z,6.95
2023-04-16T14:06:33.761Z,5.03
2023-04-16T14:09:00.391Z,6.22
2023-04-16T14:11:26.857Z,5.68
2023-04-16T14:13:53.406Z,5.53
2023-04-16T14:16:19.964Z,6.07
2023-04-16T14:18:47.168Z,6.30
2023-04-16T14:21:13.619Z,5.78
2023-04-16T14:23:40.289Z,4.80
2023-04-16T14:26:06.793Z,5.93
2023-04-16T14:28:33.296Z,6.70
2023-04-16T14:30:59.775Z,5.25
2023-04-16T14:33:26.483Z,6.28
2023-04-16T14:35:52.990Z,5.95
2023-04-16T14:38:19.435Z,6.78
2023-04-16T14:40:45.964Z,4.75
2023-04-16T14:43:12.508Z,5.53
2023-04-16T14:45:38.953Z,4.43
2023-04-16T14:48:06.287Z,5.00
2023-04-16T14:50:37.911Z,4.57
2023-04-16T14:55:33.917Z,4.10
2023-04-16T14:58:00.432Z,3.45
2023-04-16T15:00:27.487Z,4.03
2023-04-16T15:02:57.612Z,3.88
2023-04-16T15:05:24.334Z,3.75
2023-04-16T15:07:50.758Z,4.72
2023-04-16T15:10:17.369Z,4.07
2023-04-16T15:12:43.833Z,4.00
2023-04-16T15:15:10.651Z,3.88
2023-04-16T15:17:37.179Z,3.50
2023-04-16T15:20:08.068Z,3.10
2023-04-16T15:22:34.685Z,3.97
2023-04-16T15:25:01.324Z,4.88
2023-04-16T15:27:27.924Z,13.10
2023-04-16T15:29:54.446Z,10.55
2023-04-16T15:32:21.010Z,7.88
2023-04-16T15:34:47.530Z,5.85
2023-04-16T15:37:14.142Z,6.93
2023-04-16T15:39:40.776Z,14.05
2023-04-16T15:42:07.802Z,7.95
2023-04-16T15:44:34.649Z,6.60
2023-04-16T15:47:01.159Z,5.85
2023-04-16T15:49:27.682Z,4.85
2023-04-16T15:51:54.258Z,4.60
2023-04-16T15:54:20.739Z,5.78
2023-04-16T15:56:47.397Z,5.18
2023-04-16T15:59:13.897Z,4.82
2023-04-16T16:01:40.916Z,4.47
2023-04-16T16:04:08.026Z,6.13
2023-04-16T16:06:34.896Z,5.35
2023-04-16T16:09:01.839Z,5.75
2023-04-16T16:11:28.524Z,5.05
2023-04-16T16:13:55.147Z,5.47
2023-04-16T16:16:21.899Z,9.25
2023-04-16T16:18:48.834Z,7.15
2023-04-16T16:21:15.326Z,7.70
2023-04-16T16:23:42.044Z,6.68
2023-04-16T16:26:09.258Z,8.02
2023-04-16T16:28:38.817Z,7.45
2023-04-16T16:31:06.019Z,9.10
2023-04-16T16:33:32.960Z,7.40
2023-04-16T16:35:59.458Z,6.93
2023-04-16T16:38:26.142Z,6.97
2023-04-16T16:40:52.662Z,7.03
2023-04-16T16:45:55.778Z,7.47
2023-04-16T16:48:22.224Z,7.93
2023-04-16T16:50:48.741Z,6.95
2023-04-16T16:53:15.200Z,7.05
2023-04-16T16:55:41.947Z,6.57
2023-04-16T16:58:09.257Z,6.82
2023-04-16T17:00:36.071Z,7.85
2023-04-16T17:03:02.981Z,6.47
2023-04-16T17:05:29.813Z,6.22
2023-04-16T17:07:56.319Z,6.20
2023-04-16T17:10:23.122Z,7.43
2023-04-16T17:12:50.413Z,6.57
2023-04-16T17:15:19.108Z,6.68
2023-04-16T17:17:47.189Z,6.55
2023-04-16T17:20:14.252Z,6.85
2023-04-16T17:22:40.809Z,5.43
2023-04-16T17:25:08.167Z,6.70
2023-04-16T17:27:34.727Z,9.70
2023-04-16T17:30:02.235Z,13.13
2023-04-16T17:32:29.351Z,8.80
2023-04-16T17:34:56.267Z,8.98
2023-04-16T17:37:23.236Z,9.90
2023-04-16T17:39:50.015Z,8.70
2023-04-16T17:42:16.526Z,8.20
2023-04-16T17:44:43.114Z,9.00
2023-04-16T17:47:09.570Z,9.23
2023-04-16T17:49:36.365Z,6.97
2023-04-16T17:52:02.893Z,7.10
2023-04-16T17:54:29.326Z,8.27
2023-04-16T17:56:55.882Z,7.43
2023-04-16T17:59:22.344Z,6.68
2023-04-16T18:01:49.616Z,7.63
2023-04-16T18:04:16.473Z,6.47
2023-04-16T18:06:43.329Z,6.35
2023-04-16T18:09:09.747Z,7.80
2023-04-16T18:11:36.274Z,6.15
2023-04-16T18:14:02.803Z,6.00
2023-04-16T18:16:29.348Z,6.38
2023-04-16T18:18:55.847Z,5.85
2023-04-16T18:21:22.365Z,6.10
2023-04-16T18:23:48.914Z,6.80
2023-04-16T18:26:18.586Z,6.57
2023-04-16T18:28:47.635Z,5.18
2023-04-16T18:31:14.108Z,6.40
2023-04-16T18:33:55.773Z,6.22
2023-04-16T18:36:23.645Z,6.18
2023-04-16T18:39:01.036Z,9.20
2023-04-16T18:41:29.457Z,8.07
2023-04-16T18:43:56.098Z,6.88
2023-04-16T18:46:22.657Z,8.07
2023-04-16T18:48:49.164Z,8.73
2023-04-16T18:51:16.487Z,6.80
2023-04-16T18:53:44.385Z,9.35
2023-04-16T18:56:11.565Z,7.53
2023-04-16T18:58:38.112Z,7.90
2023-04-16T19:01:05.284Z,8.57
2023-04-16T19:03:32.081Z,8.05
2023-04-16T19:05:58.816Z,7.10
2023-04-16T19:08:25.392Z,9.13
2023-04-16T19:10:52.047Z,7.13
2023-04-16T19:13:18.606Z,7.70
2023-04-16T19:15:45.427Z,6.88
2023-04-16T19:18:11.918Z,8.93
2023-04-16T19:20:39.037Z,6.78
2023-04-16T19:23:05.983Z,5.70
2023-04-16T19:25:32.755Z,6.85
2023-04-16T19:27:59.344Z,6.85
2023-04-16T19:30:26.438Z,6.32
2023-04-16T19:32:55.191Z,6.38
2023-04-16T19:35:22.245Z,6.78
2023-04-16T19:37:48.780Z,6.20
2023-04-16T19:40:15.370Z,4.70
2023-04-16T19:42:41.918Z,5.47
2023-04-16T19:45:08.718Z,6.43
2023-04-16T19:47:35.551Z,6.28
2023-04-16T19:50:02.125Z,5.15
2023-04-16T19:52:28.782Z,5.50
2023-04-16T19:54:55.256Z,5.93
2023-04-16T19:57:21.723Z,5.35
2023-04-16T19:59:48.189Z,5.15
2023-04-16T20:02:14.719Z,5.38
2023-04-16T20:04:41.166Z,5.93
2023-04-16T20:07:07.708Z,6.07
2023-04-16T20:09:34.581Z,5.32
2023-04-16T20:12:01.999Z,5.38
2023-04-16T20:14:28.462Z,6.13
2023-04-16T20:16:55.007Z,5.90
2023-04-16T20:19:22.079Z,5.43
2023-04-16T20:21:48.534Z,5.55
2023-04-16T20:24:15.552Z,6.22
2023-04-16T20:26:42.479Z,4.85
2023-04-16T20:29:10.278Z,5.22
2023-04-16T20:31:36.977Z,5.22
2023-04-16T20:34:03.905Z,5.82
2023-04-16T20:36:30.383Z,6.15
2023-04-16T20:38:56.918Z,5.65
2023-04-16T20:41:25.161Z,5.13
2023-04-16T20:43:52.698Z,5.85
2023-04-16T20:46:23.887Z,5.50
2023-04-16T20:48:51.389Z,5.22
2023-04-16T20:51:17.918Z,5.80
2023-04-16T20:53:44.494Z,5.90
2023-04-16T20:56:14.624Z,5.18
2023-04-16T20:58:41.870Z,5.68
2023-04-16T21:01:08.528Z,5.47
2023-04-16T21:03:35.928Z,5.13
2023-04-16T21:06:03.557Z,5.95
2023-04-16T21:08:30.328Z,6.00
2023-04-16T21:10:56.773Z,6.00
2023-04-16T21:13:23.371Z,5.85
2023-04-16T21:15:49.895Z,5.18
2023-04-16T21:18:18.522Z,5.75
2023-04-16T21:20:45.070Z,5.15
2023-04-16T21:23:11.619Z,5.45
2023-04-16T21:25:38.161Z,5.38
2023-04-16T21:28:05.164Z,5.13
2023-04-16T21:30:31.724Z,6.18
2023-04-16T21:32:58.412Z,6.03
2023-04-16T21:35:24.958Z,6.18
2023-04-16T21:37:51.477Z,5.25
2023-04-16T21:40:17.961Z,4.97
2023-04-16T21:42:44.589Z,6.55
2023-04-16T21:45:11.489Z,5.43
2023-04-16T21:47:38.372Z,6.07
2023-04-16T21:50:05.745Z,5.93
2023-04-16T21:52:32.917Z,6.43
2023-04-16T21:55:02.462Z,6.85
2023-04-16T21:57:28.944Z,6.45
2023-04-16T21:59:55.376Z,6.57
2023-04-16T22:02:22.111Z,6.18
2023-04-16T22:04:48.773Z,6.40
2023-04-16T22:07:16.795Z,6.43
2023-04-16T22:09:43.564Z,6.72
2023-04-16T22:12:12.891Z,6.55
2023-04-16T22:14:46.298Z,7.18
2023-04-16T22:17:23.664Z,7.00
2023-04-16T22:19:50.822Z,7.35
2023-04-16T22:22:17.337Z,6.78
2023-04-16T22:24:44.362Z,7.00
2023-04-16T22:27:10.958Z,7.35
2023-04-16T22:29:37.417Z,8.15
2023-04-16T22:32:04.115Z,6.13
2023-04-16T22:34:30.660Z,7.20
2023-04-16T22:36:57.172Z,6.38
2023-04-16T22:39:23.695Z,7.10
2023-04-16T22:41:50.153Z,7.25
2023-04-16T22:44:16.870Z,7.03
2023-04-16T22:46:44.237Z,6.65
2023-04-16T22:49:10.906Z,5.80
2023-04-16T22:51:38.096Z,7.13
2023-04-16T22:54:04.756Z,6.13
2023-04-16T22:56:31.197Z,6.60
2023-04-16T22:58:57.670Z,7.20
2023-04-16T23:01:24.317Z,7.18
2023-04-16T23:03:51.001Z,7.47
2023-04-16T23:06:17.522Z,7.55
2023-04-16T23:08:44.073Z,7.50
2023-04-16T23:11:10.528Z,5.95
2023-04-16T23:13:37.440Z,6.88
2023-04-16T23:16:03.964Z,7.47
2023-04-16T23:18:30.480Z,6.45
2023-04-16T23:20:56.924Z,7.20
2023-04-16T23:23:23.356Z,7.28
2023-04-16T23:25:53.179Z,7.25
2023-04-16T23:28:19.856Z,7.15
2023-04-16T23:30:46.319Z,7.20
2023-04-16T23:33:12.862Z,6.80
2023-04-16T23:35:39.308Z,6.63
2023-04-16T23:38:05.797Z,7.20
2023-04-16T23:40:32.263Z,7.72
2023-04-16T23:42:58.829Z,7.22
2023-04-16T23:45:25.303Z,7.38
2023-04-16T23:47:51.878Z,6.97
2023-04-16T23:50:18.452Z,7.45
2023-04-16T23:52:44.910Z,7.43
2023-04-16T23:55:11.428Z,7.22
2023-04-16T23:57:37.848Z,8.15
